createdAt,value
2019-03-10T00:00:32.383Z,8.83
2019-03-10T00:03:01.031Z,8.97
2019-03-10T00:05:29.713Z,9.14
2019-03-10T00:07:58.508Z,9.29
2019-03-10T00:10:27.085Z,9.20
2019-03-10T00:12:55.705Z,8.97
2019-03-10T00:15:24.373Z,8.86
2019-03-10T00:17:53.341Z,8.79
2019-03-10T00:20:21.948Z,8.59
2019-03-10T00:22:50.533Z,8.38
2019-03-10T00:25:19.241Z,8.35
2019-03-10T00:27:47.815Z,8.45
2019-03-10T00:30:17.817Z,8.63
2019-03-10T00:32:46.440Z,8.72
2019-03-10T00:35:15.076Z,8.84
2019-03-10T00:37:43.708Z,8.90
2019-03-10T00:40:21.254Z,9.00
2019-03-10T00:43:15.464Z,9.12
2019-03-10T00:46:15.571Z,9.00
2019-03-10T00:49:06.238Z,8.86
2019-03-10T00:51:56.008Z,8.84
2019-03-10T00:54:24.647Z,8.66
2019-03-10T00:56:53.281Z,8.64
2019-03-10T00:59:22.010Z,8.58
2019-03-10T01:01:50.605Z,8.57
2019-03-10T01:04:19.204Z,8.66
2019-03-10T01:06:47.952Z,8.74
2019-03-10T01:09:16.644Z,8.80
2019-03-10T01:11:45.541Z,8.87
2019-03-10T01:14:14.598Z,8.97
2019-03-10T01:16:43.459Z,9.08
2019-03-10T01:19:12.171Z,9.17
2019-03-10T01:24:10.233Z,9.04
2019-03-10T01:26:38.818Z,8.94
2019-03-10T01:29:07.485Z,8.92
2019-03-10T01:31:51.108Z,8.85
2019-03-10T01:34:37.525Z,8.84
2019-03-10T01:37:06.170Z,8.90
2019-03-10T01:39:34.665Z,8.92
2019-03-10T01:42:03.215Z,8.95
2019-03-10T01:44:31.779Z,8.96
2019-03-10T01:47:00.347Z,8.99
2019-03-10T01:49:29.035Z,9.07
2019-03-10T01:51:57.590Z,9.21
2019-03-10T01:54:26.294Z,9.35
2019-03-10T01:56:54.864Z,9.16
2019-03-10T01:59:23.515Z,9.02
2019-03-10T02:01:52.117Z,8.85
2019-03-10T02:04:20.602Z,8.81
2019-03-10T02:06:49.129Z,8.77
2019-03-10T02:09:17.703Z,8.77
2019-03-10T02:11:46.219Z,8.87
2019-03-10T02:14:14.829Z,8.84
2019-03-10T02:16:43.404Z,8.85
2019-03-10T02:19:12.033Z,8.94
2019-03-10T02:21:40.555Z,8.97
2019-03-10T02:24:09.226Z,9.01
2019-03-10T02:26:37.780Z,9.15
2019-03-10T02:29:06.374Z,9.29
2019-03-10T02:31:35.140Z,9.21
2019-03-10T02:34:03.770Z,9.03
2019-03-10T02:36:32.297Z,8.80
2019-03-10T02:39:01.462Z,8.68
2019-03-10T02:41:29.946Z,8.76
2019-03-10T02:43:58.580Z,8.68
2019-03-10T02:46:27.095Z,8.76
2019-03-10T02:48:55.669Z,8.77
2019-03-10T02:51:24.297Z,8.88
2019-03-10T02:53:52.885Z,9.02
2019-03-10T02:56:21.381Z,9.20
2019-03-10T02:58:49.998Z,9.20
2019-03-10T03:01:18.687Z,9.27
2019-03-10T03:03:47.334Z,9.48
2019-03-10T03:06:15.938Z,9.40
2019-03-10T03:08:44.566Z,9.10
2019-03-10T03:11:13.385Z,8.97
2019-03-10T03:13:42.150Z,8.76
2019-03-10T03:16:10.702Z,8.67
2019-03-10T03:18:39.311Z,8.70
2019-03-10T03:21:07.826Z,8.83
2019-03-10T03:23:36.456Z,8.92
2019-03-10T03:26:05.058Z,8.91
2019-03-10T03:28:33.682Z,9.01
2019-03-10T03:31:02.262Z,9.19
2019-03-10T03:33:30.820Z,9.40
2019-03-10T03:36:02.610Z,9.50
2019-03-10T03:38:46.075Z,9.56
2019-03-10T03:41:20.315Z,9.57
2019-03-10T03:43:48.934Z,9.23
2019-03-10T03:46:17.552Z,8.79
2019-03-10T03:48:46.059Z,8.79
2019-03-10T03:51:14.603Z,8.69
2019-03-10T03:53:43.220Z,8.56
2019-03-10T03:56:11.803Z,8.45
2019-03-10T03:58:40.377Z,8.32
2019-03-10T04:01:10.635Z,8.34
2019-03-10T04:03:39.213Z,8.30
2019-03-10T04:06:07.824Z,8.36
2019-03-10T04:08:36.445Z,8.53
2019-03-10T04:11:05.017Z,8.69
2019-03-10T04:13:33.564Z,8.90
2019-03-10T04:16:02.207Z,9.00
2019-03-10T04:18:30.660Z,8.91
2019-03-10T04:20:59.172Z,8.66
2019-03-10T04:23:27.730Z,8.33
2019-03-10T04:25:56.339Z,8.07
2019-03-10T04:28:25.266Z,8.09
2019-03-10T04:30:53.763Z,8.22
2019-03-10T04:33:22.245Z,8.40
2019-03-10T04:35:50.819Z,8.59
2019-03-10T04:38:19.400Z,8.63
2019-03-10T04:40:47.964Z,8.62
2019-03-10T04:43:16.487Z,8.80
2019-03-10T04:45:45.064Z,8.94
2019-03-10T04:48:13.553Z,8.96
2019-03-10T04:50:42.197Z,9.05
2019-03-10T04:53:10.767Z,8.94
2019-03-10T04:55:40.934Z,8.87
2019-03-10T04:58:12.109Z,8.52
2019-03-10T05:00:42.354Z,8.36
2019-03-10T05:03:10.891Z,8.52
2019-03-10T05:05:39.462Z,8.59
2019-03-10T05:08:08.023Z,8.60
2019-03-10T05:10:36.553Z,8.88
2019-03-10T05:13:05.160Z,8.83
2019-03-10T05:15:33.694Z,8.90
2019-03-10T05:18:02.229Z,9.10
2019-03-10T05:20:31.124Z,9.18
2019-03-10T05:23:25.404Z,9.15
2019-03-10T05:25:53.974Z,9.14
2019-03-10T05:28:22.521Z,9.05
2019-03-10T05:30:51.280Z,8.83
2019-03-10T05:33:19.892Z,8.63
2019-03-10T05:35:48.515Z,8.57
2019-03-10T05:38:17.097Z,8.35
2019-03-10T05:40:45.656Z,8.27
2019-03-10T05:43:14.279Z,8.26
2019-03-10T05:45:42.914Z,8.43
2019-03-10T05:48:11.579Z,8.63
2019-03-10T05:50:40.898Z,8.54
2019-03-10T05:53:09.494Z,8.70
2019-03-10T05:55:38.562Z,8.92
2019-03-10T05:58:07.244Z,8.85
2019-03-10T06:00:42.599Z,8.79
2019-03-10T06:03:06.302Z,8.76
2019-03-10T06:05:34.950Z,8.65
2019-03-10T06:08:03.684Z,8.47
2019-03-10T06:10:32.301Z,8.32
2019-03-10T06:13:00.854Z,8.08
2019-03-10T06:15:29.315Z,8.11
2019-03-10T06:17:58.652Z,8.20
2019-03-10T06:20:27.101Z,8.29
2019-03-10T06:22:55.645Z,8.36
2019-03-10T06:25:24.345Z,8.45
2019-03-10T06:27:52.904Z,8.54
2019-03-10T06:30:24.933Z,8.55
2019-03-10T06:32:53.455Z,8.59
2019-03-10T06:35:22.069Z,8.61
2019-03-10T06:37:51.263Z,8.69
2019-03-10T06:40:19.852Z,8.55
2019-03-10T06:42:48.415Z,8.35
2019-03-10T06:45:16.943Z,8.10
2019-03-10T06:47:45.552Z,8.01
2019-03-10T06:50:14.135Z,7.79
2019-03-10T06:52:42.787Z,7.79
2019-03-10T06:55:11.419Z,7.67
2019-03-10T06:57:39.934Z,7.68
2019-03-10T07:00:11.659Z,7.88
2019-03-10T07:02:40.159Z,7.97
2019-03-10T07:05:11.283Z,8.10
2019-03-10T07:07:39.969Z,8.18
2019-03-10T07:10:14.187Z,8.26
2019-03-10T07:12:42.783Z,8.35
2019-03-10T07:15:13.033Z,8.07
2019-03-10T07:17:41.683Z,7.83
2019-03-10T07:20:13.184Z,7.63
2019-03-10T07:22:41.747Z,7.55
2019-03-10T07:25:10.666Z,7.61
2019-03-10T07:27:57.335Z,7.74
2019-03-10T07:30:42.541Z,7.90
2019-03-10T07:33:21.715Z,8.02
2019-03-10T07:35:54.278Z,7.88
2019-03-10T07:38:24.512Z,7.89
2019-03-10T07:41:12.728Z,7.92
2019-03-10T07:43:55.327Z,8.06
2019-03-10T07:46:25.483Z,7.94
2019-03-10T07:48:55.743Z,8.08
2019-03-10T07:51:44.112Z,8.06
2019-03-10T07:54:14.331Z,7.94
2019-03-10T07:56:44.570Z,7.85
2019-03-10T07:59:20.968Z,7.69
2019-03-10T08:01:57.373Z,7.76
2019-03-10T08:04:30.712Z,7.77
2019-03-10T08:07:00.917Z,7.77
2019-03-10T08:09:33.916Z,8.12
2019-03-10T08:12:04.118Z,8.23
2019-03-10T08:14:34.384Z,8.42
2019-03-10T08:17:19.504Z,8.56
2019-03-10T08:20:01.483Z,8.71
2019-03-10T08:22:34.713Z,8.64
2019-03-10T08:25:07.634Z,8.79
2019-03-10T08:28:01.172Z,8.68
2019-03-10T08:30:25.030Z,8.31
2019-03-10T08:33:04.163Z,8.02
2019-03-10T08:35:46.468Z,8.00
2019-03-10T08:38:22.955Z,8.20
2019-03-10T08:40:55.988Z,8.23
2019-03-10T08:43:26.087Z,8.35
2019-03-10T08:45:59.318Z,8.55
2019-03-10T08:48:29.499Z,8.79
2019-03-10T08:51:05.643Z,8.70
2019-03-10T08:53:53.541Z,8.83
2019-03-10T08:56:23.742Z,8.90
2019-03-10T08:58:56.634Z,9.13
2019-03-10T09:01:32.827Z,8.73
2019-03-10T09:04:09.377Z,8.73
2019-03-10T09:06:51.382Z,8.60
2019-03-10T09:09:24.778Z,8.53
2019-03-10T09:11:54.995Z,8.46
2019-03-10T09:14:30.939Z,8.50
2019-03-10T09:17:16.485Z,8.66
2019-03-10T09:19:46.646Z,8.88
2019-03-10T09:22:23.198Z,9.09
2019-03-10T09:24:54.473Z,9.26
2019-03-10T09:27:24.786Z,9.35
2019-03-10T09:29:55.176Z,9.34
2019-03-10T09:32:31.459Z,9.19
2019-03-10T09:35:10.454Z,9.27
2019-03-10T09:37:46.541Z,9.12
2019-03-10T09:40:25.983Z,8.97
2019-03-10T09:43:04.955Z,8.93
2019-03-10T09:45:40.939Z,8.98
2019-03-10T09:48:13.852Z,9.03
2019-03-10T09:51:00.610Z,9.08
2019-03-10T09:53:36.808Z,9.34
2019-03-10T09:56:22.174Z,9.80
2019-03-10T09:59:08.396Z,10.17
2019-03-10T10:01:51.651Z,10.19
2019-03-10T10:04:33.906Z,10.04
2019-03-10T10:07:04.184Z,10.06
2019-03-10T10:09:46.113Z,10.45
2019-03-10T10:12:16.343Z,10.49
2019-03-10T10:14:52.633Z,10.42
2019-03-10T10:17:28.575Z,10.56
2019-03-10T10:19:58.658Z,10.70
2019-03-10T10:22:31.947Z,10.83
2019-03-10T10:25:08.062Z,11.02
2019-03-10T10:27:43.223Z,11.27
2019-03-10T10:30:14.573Z,11.57
2019-03-10T10:32:44.843Z,11.82
2019-03-10T10:35:24.197Z,11.85
2019-03-10T10:38:18.291Z,11.81
2019-03-10T10:40:45.319Z,11.94
2019-03-10T10:43:15.568Z,11.97
2019-03-10T10:45:54.868Z,12.03
2019-03-10T10:48:27.804Z,12.21
2019-03-10T10:51:02.589Z,12.48
2019-03-10T10:53:38.351Z,12.97
2019-03-10T10:56:20.561Z,13.33
2019-03-10T10:58:53.896Z,13.75
2019-03-10T11:01:30.172Z,14.19
2019-03-10T11:04:16.677Z,14.28
2019-03-10T11:06:52.608Z,14.11
2019-03-10T11:09:25.883Z,13.97
2019-03-10T11:11:56.214Z,13.91
2019-03-10T11:14:26.489Z,14.04
2019-03-10T11:17:13.265Z,13.92
2019-03-10T11:20:01.772Z,13.76
2019-03-10T11:22:35.017Z,13.53
2019-03-10T11:25:07.597Z,13.15
2019-03-10T11:27:37.817Z,12.94
2019-03-10T11:30:17.489Z,12.69
2019-03-10T11:32:56.922Z,12.78
2019-03-10T11:35:35.937Z,12.52
2019-03-10T11:38:15.249Z,12.17
2019-03-10T11:41:01.099Z,11.81
2019-03-10T11:43:37.320Z,11.64
2019-03-10T11:46:30.293Z,11.43
2019-03-10T11:49:00.642Z,11.30
2019-03-10T11:51:30.871Z,11.42
2019-03-10T11:54:01.022Z,11.50
2019-03-10T11:56:48.014Z,11.56
2019-03-10T11:59:18.162Z,11.61
2019-03-10T12:01:48.444Z,11.54
2019-03-10T12:04:30.252Z,11.43
2019-03-10T12:07:06.313Z,11.18
2019-03-10T12:09:35.077Z,11.06
2019-03-10T12:12:03.704Z,10.92
2019-03-10T12:14:32.198Z,10.79
2019-03-10T12:17:00.820Z,10.69
2019-03-10T12:19:29.398Z,10.63
2019-03-10T12:21:57.971Z,10.61
2019-03-10T12:24:26.587Z,10.75
2019-03-10T12:26:55.208Z,10.90
2019-03-10T12:29:24.400Z,10.99
2019-03-10T12:31:54.775Z,10.99
2019-03-10T12:34:23.820Z,10.97
2019-03-10T12:36:52.450Z,11.12
2019-03-10T12:39:21.116Z,11.30
2019-03-10T12:41:58.070Z,11.38
2019-03-10T12:44:20.032Z,11.56
2019-03-10T12:46:48.579Z,11.73
2019-03-10T12:49:17.129Z,11.86
2019-03-10T12:51:45.782Z,11.77
2019-03-10T12:54:14.473Z,11.63
2019-03-10T12:56:43.177Z,11.42
2019-03-10T12:59:11.853Z,11.29
2019-03-10T13:01:40.663Z,11.11
2019-03-10T13:04:09.275Z,10.98
2019-03-10T13:06:37.933Z,10.87
2019-03-10T13:09:07.919Z,10.78
2019-03-10T13:11:36.428Z,10.70
2019-03-10T13:14:05.036Z,10.61
2019-03-10T13:16:33.538Z,10.77
2019-03-10T13:19:02.127Z,10.91
2019-03-10T13:21:30.841Z,11.16
2019-03-10T13:23:59.409Z,11.30
2019-03-10T13:26:28.054Z,11.30
2019-03-10T13:28:56.693Z,11.20
2019-03-10T13:31:25.338Z,11.07
2019-03-10T13:33:53.961Z,11.03
2019-03-10T13:36:22.567Z,11.18
2019-03-10T13:38:51.180Z,11.41
2019-03-10T13:41:19.826Z,11.63
2019-03-10T13:43:48.431Z,11.77
2019-03-10T13:46:16.940Z,11.68
2019-03-10T13:48:45.580Z,11.58
2019-03-10T13:51:14.109Z,11.36
2019-03-10T13:53:42.699Z,11.10
2019-03-10T13:56:11.387Z,10.83
2019-03-10T13:58:39.941Z,10.75
2019-03-10T14:01:08.580Z,10.54
2019-03-10T14:03:37.445Z,10.56
2019-03-10T14:06:06.110Z,10.58
2019-03-10T14:08:34.989Z,10.71
2019-03-10T14:11:03.826Z,10.86
2019-03-10T14:13:32.532Z,10.67
2019-03-10T14:16:01.041Z,10.39
2019-03-10T14:18:29.681Z,10.19
2019-03-10T14:20:58.752Z,9.99
2019-03-10T14:23:27.305Z,9.78
2019-03-10T14:25:56.034Z,9.53
2019-03-10T14:28:24.610Z,9.49
2019-03-10T14:30:53.267Z,9.49
2019-03-10T14:33:21.963Z,9.36
2019-03-10T14:35:50.565Z,9.32
2019-03-10T14:38:19.162Z,9.31
2019-03-10T14:40:47.803Z,9.36
2019-03-10T14:43:16.523Z,9.41
2019-03-10T14:45:45.125Z,9.58
2019-03-10T14:48:13.859Z,9.71
2019-03-10T14:50:42.423Z,9.60
2019-03-10T14:53:11.296Z,9.54
2019-03-10T14:55:40.063Z,9.33
2019-03-10T14:58:08.808Z,9.16
2019-03-10T15:00:37.445Z,9.01
2019-03-10T15:03:06.914Z,8.99
2019-03-10T15:05:35.530Z,8.91
2019-03-10T15:08:04.131Z,8.91
2019-03-10T15:10:32.742Z,8.95
2019-03-10T15:13:01.573Z,8.99
2019-03-10T15:15:30.107Z,9.03
2019-03-10T15:17:58.736Z,9.04
2019-03-10T15:20:27.334Z,9.25
2019-03-10T15:22:55.889Z,9.59
2019-03-10T15:25:25.433Z,9.34
2019-03-10T15:27:54.219Z,9.22
2019-03-10T15:30:24.211Z,9.06
2019-03-10T15:32:52.890Z,8.89
2019-03-10T15:35:21.498Z,8.73
2019-03-10T15:37:50.119Z,8.61
2019-03-10T15:40:19.339Z,8.51
2019-03-10T15:42:47.941Z,8.47
2019-03-10T15:45:17.387Z,8.44
2019-03-10T15:47:45.969Z,8.25
2019-03-10T15:50:31.395Z,8.31
2019-03-10T15:53:00.046Z,8.31
2019-03-10T15:55:28.675Z,8.48
2019-03-10T15:57:57.287Z,8.79
2019-03-10T16:00:27.271Z,8.62
2019-03-10T16:02:55.842Z,8.41
2019-03-10T16:05:24.483Z,8.24
2019-03-10T16:07:53.091Z,8.11
2019-03-10T16:10:21.762Z,7.93
2019-03-10T16:12:50.457Z,7.78
2019-03-10T16:15:24.127Z,7.77
2019-03-10T16:17:52.726Z,7.53
2019-03-10T16:20:21.297Z,7.28
2019-03-10T16:22:49.887Z,7.32
2019-03-10T16:25:19.171Z,7.31
2019-03-10T16:27:49.770Z,7.41
2019-03-10T16:30:28.049Z,7.50
2019-03-10T16:32:56.665Z,7.86
2019-03-10T16:35:25.323Z,7.77
2019-03-10T16:37:54.040Z,7.44
2019-03-10T16:40:23.043Z,7.18
2019-03-10T16:42:51.629Z,7.06
2019-03-10T16:45:22.313Z,6.88
2019-03-10T16:47:50.890Z,6.68
2019-03-10T16:50:22.378Z,6.69
2019-03-10T16:52:51.011Z,6.67
2019-03-10T16:55:19.660Z,6.57
2019-03-10T16:57:48.291Z,6.53
2019-03-10T17:00:19.665Z,6.46
2019-03-10T17:02:48.481Z,6.43
2019-03-10T17:05:18.302Z,6.60
2019-03-10T17:07:46.916Z,6.87
2019-03-10T17:10:25.875Z,6.94
2019-03-10T17:12:54.467Z,6.74
2019-03-10T17:15:24.179Z,6.71
2019-03-10T17:17:52.982Z,6.61
2019-03-10T17:20:21.872Z,6.43
2019-03-10T17:22:50.638Z,6.38
2019-03-10T17:25:19.278Z,6.20
2019-03-10T17:27:47.886Z,6.18
2019-03-10T17:30:21.207Z,6.25
2019-03-10T17:32:50.649Z,6.26
2019-03-10T17:35:20.053Z,6.24
2019-03-10T17:37:49.547Z,6.18
2019-03-10T17:40:25.651Z,6.28
2019-03-10T17:42:54.544Z,6.52
2019-03-10T17:45:27.288Z,6.80
2019-03-10T17:47:55.879Z,6.66
2019-03-10T17:50:24.551Z,6.43
2019-03-10T17:52:53.199Z,6.31
2019-03-10T17:55:22.779Z,6.12
2019-03-10T17:57:51.392Z,6.07
2019-03-10T18:00:22.426Z,5.94
2019-03-10T18:02:50.997Z,6.06
2019-03-10T18:05:19.694Z,6.11
2019-03-10T18:07:48.242Z,5.94
2019-03-10T18:10:17.934Z,6.00
2019-03-10T18:12:46.978Z,5.96
2019-03-10T18:15:17.742Z,6.18
2019-03-10T18:17:46.744Z,6.41
2019-03-10T18:20:24.816Z,7.07
2019-03-10T18:22:53.393Z,6.70
2019-03-10T18:25:21.984Z,6.46
2019-03-10T18:27:50.585Z,6.27
2019-03-10T18:30:27.191Z,6.16
2019-03-10T18:32:55.728Z,6.08
2019-03-10T18:35:24.442Z,5.98
2019-03-10T18:37:53.212Z,5.96
2019-03-10T18:40:28.503Z,6.02
2019-03-10T18:42:57.145Z,5.96
2019-03-10T18:45:25.736Z,5.85
2019-03-10T18:47:54.356Z,5.86
2019-03-10T18:50:24.434Z,5.87
2019-03-10T18:52:53.098Z,6.00
2019-03-10T18:55:21.856Z,6.28
2019-03-10T18:57:50.452Z,6.27
2019-03-10T19:00:26.709Z,6.13
2019-03-10T19:02:55.894Z,5.85
2019-03-10T19:05:24.573Z,5.63
2019-03-10T19:07:53.189Z,5.46
2019-03-10T19:10:21.814Z,5.23
2019-03-10T19:12:50.422Z,5.24
2019-03-10T19:15:21.090Z,5.25
2019-03-10T19:17:49.725Z,5.32
2019-03-10T19:20:18.317Z,5.44
2019-03-10T19:22:46.926Z,5.35
2019-03-10T19:25:16.510Z,5.33
2019-03-10T19:27:45.433Z,5.41
2019-03-10T19:30:18.999Z,5.66
2019-03-10T19:32:47.830Z,5.67
2019-03-10T19:35:16.482Z,5.32
2019-03-10T19:37:45.203Z,5.23
2019-03-10T19:40:16.131Z,5.14
2019-03-10T19:42:44.672Z,5.10
2019-03-10T19:45:15.934Z,5.15
2019-03-10T19:47:44.567Z,5.30
2019-03-10T19:50:15.686Z,5.38
2019-03-10T19:52:44.251Z,5.29
2019-03-10T19:55:15.830Z,5.53
2019-03-10T19:57:44.430Z,5.59
2019-03-10T20:00:22.863Z,5.69
2019-03-10T20:02:51.528Z,5.95
2019-03-10T20:05:20.055Z,6.23
2019-03-10T20:07:48.691Z,6.22
2019-03-10T20:10:21.591Z,5.92
2019-03-10T20:12:50.272Z,5.40
2019-03-10T20:15:20.706Z,4.89
2019-03-10T20:17:49.639Z,4.56
2019-03-10T20:20:20.274Z,4.26
2019-03-10T20:22:48.890Z,4.27
2019-03-10T20:25:17.472Z,4.38
2019-03-10T20:27:46.025Z,4.38
2019-03-10T20:30:24.992Z,4.49
2019-03-10T20:32:53.579Z,4.50
2019-03-10T20:35:22.139Z,4.31
2019-03-10T20:37:51.021Z,4.31
2019-03-10T20:40:24.100Z,4.53
2019-03-10T20:42:52.680Z,4.82
2019-03-10T20:45:24.168Z,4.72
2019-03-10T20:47:52.556Z,4.46
2019-03-10T20:50:21.666Z,4.34
2019-03-10T20:52:50.176Z,4.16
2019-03-10T20:55:18.937Z,4.03
2019-03-10T20:57:47.586Z,4.02
2019-03-10T21:00:24.321Z,3.96
2019-03-10T21:02:53.060Z,3.82
2019-03-10T21:05:21.656Z,3.85
2019-03-10T21:07:50.245Z,3.83
2019-03-10T21:10:23.823Z,3.88
2019-03-10T21:12:52.402Z,3.84
2019-03-10T21:15:25.867Z,3.89
2019-03-10T21:17:53.594Z,4.23
2019-03-10T21:20:24.112Z,4.23
2019-03-10T21:22:52.715Z,4.00
2019-03-10T21:25:31.892Z,3.79
2019-03-10T21:28:00.481Z,3.73
2019-03-10T21:30:33.496Z,3.73
2019-03-10T21:33:02.042Z,3.90
2019-03-10T21:35:33.157Z,4.18
2019-03-10T21:38:00.956Z,4.27
2019-03-10T21:40:31.526Z,4.32
2019-03-10T21:43:00.106Z,4.18
2019-03-10T21:45:28.746Z,4.09
2019-03-10T21:47:57.336Z,4.29
2019-03-10T21:50:26.074Z,4.28
2019-03-10T21:52:54.779Z,4.38
2019-03-10T21:55:23.405Z,4.42
2019-03-10T21:57:52.055Z,4.31
2019-03-10T22:00:23.581Z,4.21
2019-03-10T22:02:52.204Z,4.22
2019-03-10T22:05:21.228Z,4.17
2019-03-10T22:07:49.819Z,4.21
2019-03-10T22:10:27.348Z,4.34
2019-03-10T22:12:52.760Z,4.29
2019-03-10T22:15:21.845Z,4.31
2019-03-10T22:17:50.496Z,4.45
2019-03-10T22:20:19.875Z,4.56
2019-03-10T22:22:49.890Z,4.65
2019-03-10T22:25:19.046Z,4.74
2019-03-10T22:27:47.713Z,4.87
2019-03-10T22:30:22.049Z,5.04
2019-03-10T22:32:50.650Z,4.81
2019-03-10T22:35:19.269Z,4.61
2019-03-10T22:37:47.860Z,4.39
2019-03-10T22:40:17.684Z,4.36
2019-03-10T22:42:46.480Z,4.36
2019-03-10T22:45:19.024Z,4.50
2019-03-10T22:47:47.730Z,4.56
2019-03-10T22:50:16.937Z,4.60
2019-03-10T22:52:45.952Z,4.67
2019-03-10T22:55:15.652Z,4.80
2019-03-10T22:57:44.441Z,4.79
2019-03-10T23:00:25.481Z,4.83
2019-03-10T23:02:54.123Z,4.95
2019-03-10T23:05:23.108Z,5.13
2019-03-10T23:07:51.686Z,5.18
2019-03-10T23:10:20.898Z,5.15
2019-03-10T23:12:49.474Z,5.04
2019-03-10T23:15:18.082Z,4.97
2019-03-10T23:17:46.664Z,4.91
2019-03-10T23:20:16.303Z,4.96
2019-03-10T23:22:44.940Z,5.04
2019-03-10T23:25:13.724Z,5.14
2019-03-10T23:27:42.568Z,5.24
2019-03-10T23:30:18.322Z,5.34
2019-03-10T23:32:46.934Z,5.30
2019-03-10T23:35:15.511Z,5.18
2019-03-10T23:37:44.069Z,5.23
2019-03-10T23:40:16.514Z,5.65
2019-03-10T23:42:45.113Z,5.36
2019-03-10T23:45:17.335Z,4.93
2019-03-10T23:47:46.039Z,4.66
2019-03-10T23:50:17.660Z,4.47
2019-03-10T23:52:46.363Z,4.61
2019-03-10T23:55:15.039Z,4.75
2019-03-10T23:57:43.646Z,4.91
